createdAt,value
2019-04-05T00:00:00.386Z,99519.42
2019-04-05T00:02:31.763Z,99528.08
2019-04-05T00:05:03.383Z,99529.37
2019-04-05T00:07:35.286Z,99526.73
2019-04-05T00:10:08.333Z,99514.59
2019-04-05T00:12:40.494Z,99520.61
2019-04-05T00:15:15.469Z,99516.30
2019-04-05T00:17:45.836Z,99519.73
2019-04-05T00:20:17.847Z,99519.75
2019-04-05T00:22:49.884Z,99518.49
2019-04-05T00:25:21.706Z,99525.44
2019-04-05T00:27:53.510Z,99521.03
2019-04-05T00:30:25.326Z,99511.92
2019-04-05T00:32:57.264Z,99507.64
2019-04-05T00:35:28.684Z,99496.83
2019-04-05T00:38:00.433Z,99508.56
2019-04-05T00:40:32.446Z,99510.30
2019-04-05T00:43:04.151Z,99506.82
2019-04-05T00:45:35.523Z,99511.68
2019-04-05T00:48:08.131Z,99506.89
2019-04-05T00:50:39.511Z,99507.41
2019-04-05T00:53:42.307Z,99509.07
2019-04-05T00:56:28.772Z,99510.44
2019-04-05T00:59:03.788Z,99503.92
2019-04-05T01:01:51.427Z,99502.17
2019-04-05T01:04:51.118Z,99501.45
2019-04-05T01:07:46.271Z,99507.09
2019-04-05T01:11:02.984Z,99507.95
2019-04-05T02:13:09.745Z,99506.55
2019-04-05T02:15:42.498Z,99518.66
2019-04-05T02:18:13.819Z,99528.20
2019-04-05T02:20:45.610Z,99532.53
2019-04-05T02:23:16.818Z,99532.48
2019-04-05T02:25:48.167Z,99535.84
2019-04-05T02:28:19.495Z,99536.65
2019-04-05T02:30:51.490Z,99548.31
2019-04-05T02:33:23.114Z,99553.87
2019-04-05T02:35:54.519Z,99562.53
2019-04-05T02:38:26.165Z,99565.96
2019-04-05T02:41:01.480Z,99564.61
2019-04-05T02:43:35.821Z,99563.69
2019-04-05T02:46:22.820Z,99566.66
2019-04-05T02:48:46.138Z,99564.88
2019-04-05T02:51:22.526Z,99554.52
2019-04-05T02:53:56.055Z,99568.71
2019-04-05T02:56:31.546Z,99575.18
2019-04-05T02:59:05.186Z,99586.03
2019-04-05T03:01:37.381Z,99586.03
2019-04-05T03:04:09.386Z,99595.16
2019-04-05T03:06:42.165Z,99592.12
2019-04-05T03:09:14.690Z,99586.41
2019-04-05T03:11:46.594Z,99588.09
2019-04-05T03:14:18.848Z,99604.98
2019-04-05T03:16:54.563Z,99601.55
2019-04-05T03:19:32.291Z,99601.12
2019-04-05T03:22:10.667Z,99595.86
2019-04-05T03:24:46.376Z,99591.94
2019-04-05T03:27:24.722Z,99588.85
2019-04-05T03:29:56.634Z,99593.62
2019-04-05T03:32:29.752Z,99593.69
2019-04-05T03:35:01.236Z,99598.02
2019-04-05T03:37:32.761Z,99598.45
2019-04-05T03:40:04.605Z,99604.53
2019-04-05T03:42:36.605Z,99609.31
2019-04-05T03:45:08.236Z,99604.93
2019-04-05T03:47:39.610Z,99604.92
2019-04-05T03:50:11.118Z,99601.88
2019-04-05T03:52:42.831Z,99597.97
2019-04-05T03:55:14.223Z,99613.56
2019-04-05T03:57:45.618Z,99611.81
2019-04-05T04:00:17.088Z,99601.88
2019-04-05T04:02:48.407Z,99598.41
2019-04-05T04:05:19.787Z,99598.83
2019-04-05T04:07:51.358Z,99607.96
2019-04-05T04:10:25.548Z,99604.93
2019-04-05T04:12:57.331Z,99608.39
2019-04-05T04:15:30.543Z,99609.27
2019-04-05T04:18:01.982Z,99611.87
2019-04-05T04:20:42.650Z,99608.02
2019-04-05T04:23:15.659Z,99608.02
2019-04-05T04:25:48.121Z,99598.83
2019-04-05T04:28:20.210Z,99610.57
2019-04-05T04:31:07.388Z,99619.27
2019-04-05T04:33:52.147Z,99616.64
2019-04-05T04:36:40.986Z,99621.44
2019-04-05T04:39:13.047Z,99621.48
2019-04-05T04:41:49.673Z,99627.13
2019-04-05T04:44:29.729Z,99631.84
2019-04-05T04:47:07.427Z,99627.94
2019-04-05T04:49:43.623Z,99636.25
2019-04-05T04:52:23.158Z,99640.12
2019-04-05T04:54:54.781Z,99639.72
2019-04-05T04:57:26.191Z,99658.36
2019-04-05T04:59:57.649Z,99667.48
2019-04-05T05:02:32.255Z,99660.58
2019-04-05T05:05:04.227Z,99663.18
2019-04-05T05:07:36.523Z,99660.53
2019-04-05T05:10:09.138Z,99667.91
2019-04-05T05:12:40.753Z,99665.31
2019-04-05T05:15:13.747Z,99670.90
2019-04-05T05:17:57.727Z,99675.69
2019-04-05T05:20:19.835Z,99676.56
2019-04-05T05:22:51.677Z,99672.59
2019-04-05T05:25:24.003Z,99676.12
2019-04-05T05:27:55.816Z,99681.77
2019-04-05T05:30:29.178Z,99682.19
2019-04-05T05:33:00.688Z,99681.72
2019-04-05T05:35:33.301Z,99685.62
2019-04-05T05:38:05.606Z,99681.28
2019-04-05T05:40:37.375Z,99684.80
2019-04-05T05:43:09.237Z,99688.28
2019-04-05T05:45:41.691Z,99687.41
2019-04-05T05:48:13.794Z,99684.80
2019-04-05T05:50:45.637Z,99696.44
2019-04-05T05:53:17.088Z,99696.44
2019-04-05T05:55:48.511Z,99697.73
2019-04-05T05:58:20.170Z,99699.89
2019-04-05T06:00:51.520Z,99695.56
2019-04-05T06:03:23.179Z,99702.02
2019-04-05T06:08:29.267Z,99694.95
2019-04-05T06:11:00.800Z,99693.66
2019-04-05T06:13:32.883Z,99691.91
2019-04-05T06:16:04.197Z,99694.09
2019-04-05T06:18:35.768Z,99697.50
2019-04-05T06:21:07.603Z,99701.80
2019-04-05T06:23:41.732Z,99699.62
2019-04-05T06:26:12.497Z,99701.80
2019-04-05T06:28:44.551Z,99703.10
2019-04-05T06:31:16.064Z,99698.28
2019-04-05T06:33:47.399Z,99702.56
2019-04-05T06:36:19.388Z,99711.64
2019-04-05T06:38:51.541Z,99714.62
2019-04-05T06:41:22.909Z,99715.48
2019-04-05T06:43:55.304Z,99714.08
2019-04-05T06:46:26.748Z,99714.13
2019-04-05T06:48:58.134Z,99709.28
2019-04-05T06:51:29.442Z,99704.45
2019-04-05T06:54:03.390Z,99709.23
2019-04-05T06:56:34.555Z,99709.28
2019-04-05T06:59:06.195Z,99712.70
2019-04-05T07:01:37.927Z,99717.38
2019-04-05T07:04:09.584Z,99722.60
2019-04-05T07:06:41.289Z,99714.72
2019-04-05T07:09:13.392Z,99715.12
2019-04-05T07:11:44.899Z,99718.12
2019-04-05T07:14:17.071Z,99728.07
2019-04-05T07:16:49.110Z,99731.53
2019-04-05T07:19:20.758Z,99740.24
2019-04-05T07:21:53.018Z,99744.11
2019-04-05T07:24:24.404Z,99747.95
2019-04-05T07:26:55.706Z,99748.77
2019-04-05T07:29:27.027Z,99746.11
2019-04-05T07:31:59.037Z,99746.97
2019-04-05T07:34:31.567Z,99743.47
2019-04-05T07:37:02.919Z,99745.23
2019-04-05T07:39:34.709Z,99746.02
2019-04-05T07:42:06.104Z,99749.89
2019-04-05T07:44:37.400Z,99746.80
2019-04-05T07:47:10.194Z,99755.98
2019-04-05T07:49:41.488Z,99750.33
2019-04-05T07:52:13.185Z,99742.46
2019-04-05T07:54:44.621Z,99748.61
2019-04-05T07:57:15.915Z,99742.40
2019-04-05T07:59:47.952Z,99738.91
2019-04-05T08:02:20.624Z,99740.17
2019-04-05T08:04:54.744Z,99746.69
2019-04-05T08:07:32.151Z,99754.97
2019-04-05T08:10:04.709Z,99759.56
2019-04-05T08:12:37.044Z,99756.52
2019-04-05T08:15:09.277Z,99741.29
2019-04-05T08:17:40.942Z,99746.81
2019-04-05T08:20:12.341Z,99755.59
2019-04-05T08:22:44.423Z,99760.25
2019-04-05T08:25:16.494Z,99762.42
2019-04-05T08:27:48.303Z,99762.47
2019-04-05T08:30:20.266Z,99759.30
2019-04-05T08:32:52.371Z,99760.98
2019-04-05T08:35:24.030Z,99755.83
2019-04-05T08:37:55.751Z,99761.35
2019-04-05T08:40:27.480Z,99762.66
2019-04-05T08:42:58.975Z,99763.52
2019-04-05T08:45:30.749Z,99752.29
2019-04-05T08:48:02.458Z,99755.39
2019-04-05T08:50:33.768Z,99764.78
2019-04-05T08:53:05.163Z,99759.09
2019-04-05T08:55:36.597Z,99765.27
2019-04-05T08:58:08.551Z,99759.98
2019-04-05T09:00:40.264Z,99766.43
2019-04-05T09:03:12.450Z,99763.27
2019-04-05T09:05:44.104Z,99772.48
2019-04-05T09:08:16.156Z,99768.34
2019-04-05T09:10:48.323Z,99767.42
2019-04-05T09:13:20.369Z,99768.34
2019-04-05T09:15:51.740Z,99765.16
2019-04-05T09:18:23.180Z,99762.56
2019-04-05T09:20:54.473Z,99773.95
2019-04-05T09:23:26.284Z,99778.74
2019-04-05T09:25:57.690Z,99775.10
2019-04-05T09:28:29.384Z,99778.53
2019-04-05T09:31:01.151Z,99783.62
2019-04-05T09:33:32.889Z,99783.93
2019-04-05T09:36:04.571Z,99778.33
2019-04-05T09:38:36.319Z,99778.77
2019-04-05T09:41:08.523Z,99787.03
2019-04-05T09:43:40.260Z,99780.28
2019-04-05T09:46:12.045Z,99781.38
2019-04-05T09:48:43.602Z,99781.95
2019-04-05T09:51:15.312Z,99789.45
2019-04-05T09:53:46.678Z,99790.98
2019-04-05T09:56:18.036Z,99791.83
2019-04-05T09:58:51.200Z,99790.98
2019-04-05T10:01:22.569Z,99790.39
2019-04-05T10:03:54.228Z,99791.34
2019-04-05T10:06:26.583Z,99795.69
2019-04-05T10:08:58.201Z,99790.74
2019-04-05T10:11:29.743Z,99790.90
2019-04-05T10:14:01.124Z,99797.59
2019-04-05T10:16:34.139Z,99799.61
2019-04-05T10:19:05.916Z,99799.61
2019-04-05T10:21:37.642Z,99810.49
2019-04-05T10:24:09.142Z,99814.34
2019-04-05T10:26:40.939Z,99822.77
2019-04-05T10:29:12.262Z,99820.88
2019-04-05T10:31:44.247Z,99823.09
2019-04-05T10:34:16.048Z,99824.59
2019-04-05T10:36:47.958Z,99831.48
2019-04-05T10:39:20.016Z,99826.55
2019-04-05T10:42:02.729Z,99829.47
2019-04-05T10:44:25.217Z,99832.52
2019-04-05T10:46:57.037Z,99831.73
2019-04-05T10:49:28.773Z,99825.46
2019-04-05T10:52:00.084Z,99827.74
2019-04-05T10:54:32.558Z,99831.59
2019-04-05T10:57:04.692Z,99837.69
2019-04-05T10:59:38.515Z,99839.20
2019-04-05T11:02:09.436Z,99838.11
2019-04-05T11:04:40.722Z,99841.10
2019-04-05T11:07:12.006Z,99850.33
2019-04-05T11:09:43.438Z,99848.06
2019-04-05T11:12:15.031Z,99846.03
2019-04-05T11:14:46.631Z,99847.94
2019-04-05T11:17:18.461Z,99850.04
2019-04-05T11:19:50.877Z,99851.49
2019-04-05T11:22:22.309Z,99857.36
2019-04-05T11:24:54.362Z,99857.81
2019-04-05T11:27:25.730Z,99856.48
2019-04-05T11:29:57.978Z,99853.01
2019-04-05T11:32:29.821Z,99855.70
2019-04-05T11:35:01.343Z,99851.77
2019-04-05T11:37:33.335Z,99850.74
2019-04-05T11:40:06.219Z,99852.40
2019-04-05T11:42:41.694Z,99852.86
2019-04-05T11:45:13.629Z,99853.14
2019-04-05T11:47:46.107Z,99854.22
2019-04-05T11:50:17.940Z,99851.60
2019-04-05T11:52:49.221Z,99859.25
2019-04-05T11:55:20.629Z,99859.97
2019-04-05T11:57:54.709Z,99862.08
2019-04-05T12:00:32.907Z,99865.34
2019-04-05T12:03:09.719Z,99866.79
2019-04-05T12:05:40.903Z,99861.59
2019-04-05T12:08:12.512Z,99861.67
2019-04-05T12:10:44.204Z,99861.28
2019-04-05T12:13:16.089Z,99858.66
2019-04-05T12:15:47.430Z,99869.55
2019-04-05T12:18:19.664Z,99869.63
2019-04-05T12:20:59.629Z,99862.84
2019-04-05T12:23:24.544Z,99860.09
2019-04-05T12:25:55.848Z,99870.07
2019-04-05T12:28:27.296Z,99868.27
2019-04-05T12:30:58.662Z,99858.15
2019-04-05T12:33:29.968Z,99857.13
2019-04-05T12:36:01.667Z,99854.17
2019-04-05T12:38:33.456Z,99847.86
2019-04-05T12:41:10.701Z,99855.08
2019-04-05T12:43:43.973Z,99856.85
2019-04-05T12:46:15.906Z,99856.54
2019-04-05T12:48:46.593Z,99859.55
2019-04-05T12:51:18.300Z,99865.95
2019-04-05T12:53:50.027Z,99866.69
2019-04-05T12:56:22.408Z,99868.22
2019-04-05T12:58:57.477Z,99856.83
2019-04-05T13:01:28.781Z,99862.72
2019-04-05T13:04:00.122Z,99854.01
2019-04-05T13:06:32.236Z,99854.45
2019-04-05T13:09:06.162Z,99853.09
2019-04-05T13:11:37.660Z,99848.55
2019-04-05T13:14:09.046Z,99844.66
2019-04-05T13:16:40.928Z,99835.47
2019-04-05T13:19:15.271Z,99837.83
2019-04-05T13:21:47.489Z,99846.02
2019-04-05T13:24:18.957Z,99840.75
2019-04-05T13:26:50.598Z,99840.20
2019-04-05T13:29:21.966Z,99849.55
2019-04-05T13:31:53.647Z,99852.97
2019-04-05T13:34:26.034Z,99854.36
2019-04-05T13:36:59.299Z,99856.05
2019-04-05T13:39:31.531Z,99855.52
2019-04-05T13:42:03.360Z,99852.42
2019-04-05T13:44:35.476Z,99855.28
2019-04-05T13:47:08.478Z,99850.45
2019-04-05T13:49:40.762Z,99845.98
2019-04-05T13:52:13.190Z,99851.41
2019-04-05T13:54:44.512Z,99844.57
2019-04-05T13:57:15.894Z,99845.31
2019-04-05T13:59:47.173Z,99844.45
2019-04-05T14:02:21.152Z,99850.67
2019-04-05T14:04:54.905Z,99857.30
2019-04-05T14:07:26.793Z,99850.21
2019-04-05T14:09:58.260Z,99850.06
2019-04-05T14:12:31.273Z,99846.65
2019-04-05T14:15:02.976Z,99847.41
2019-04-05T14:17:35.010Z,99849.17
2019-04-05T14:20:09.479Z,99851.47
2019-04-05T14:22:41.277Z,99854.16
2019-04-05T14:25:13.164Z,99853.61
2019-04-05T14:27:45.228Z,99856.85
2019-04-05T14:30:17.183Z,99857.63
2019-04-05T14:32:51.091Z,99858.48
2019-04-05T14:35:24.374Z,99852.96
2019-04-05T14:37:56.362Z,99847.25
2019-04-05T14:40:28.932Z,99853.11
2019-04-05T14:43:02.804Z,99853.08
2019-04-05T14:45:34.159Z,99848.09
2019-04-05T14:48:06.812Z,99847.77
2019-04-05T14:50:38.621Z,99848.33
2019-04-05T14:53:10.181Z,99851.64
2019-04-05T14:55:42.847Z,99858.56
2019-04-05T14:58:15.857Z,99855.48
2019-04-05T15:00:54.000Z,99857.91
2019-04-05T15:03:25.553Z,99855.95
2019-04-05T15:05:56.962Z,99854.77
2019-04-05T15:08:28.619Z,99857.84
2019-04-05T15:11:00.642Z,99859.69
2019-04-05T15:13:32.351Z,99861.36
2019-04-05T15:16:04.871Z,99858.94
2019-04-05T15:18:36.710Z,99853.69
2019-04-05T15:21:08.286Z,99856.63
2019-04-05T15:23:41.463Z,99854.16
2019-04-05T15:26:14.622Z,99856.06
2019-04-05T15:28:47.814Z,99855.20
2019-04-05T15:31:19.541Z,99853.01
2019-04-05T15:33:51.650Z,99849.88
2019-04-05T15:36:23.787Z,99851.83
2019-04-05T15:38:55.678Z,99858.36
2019-04-05T15:41:27.042Z,99863.77
2019-04-05T15:43:58.417Z,99859.00
2019-04-05T15:46:29.899Z,99866.30
2019-04-05T15:49:01.260Z,99864.75
2019-04-05T15:51:33.044Z,99864.38
2019-04-05T15:54:05.290Z,99862.62
2019-04-05T15:56:36.656Z,99863.92
2019-04-05T15:59:08.823Z,99864.37
2019-04-05T16:01:40.321Z,99866.00
2019-04-05T16:04:12.130Z,99865.87
2019-04-05T16:06:43.524Z,99869.30
2019-04-05T16:09:18.288Z,99860.55
2019-04-05T16:11:49.608Z,99859.02
2019-04-05T16:14:21.243Z,99860.62
2019-04-05T16:16:53.771Z,99866.95
2019-04-05T16:19:25.225Z,99871.08
2019-04-05T16:21:56.671Z,99872.58
2019-04-05T16:24:29.345Z,99871.95
2019-04-05T16:27:01.150Z,99875.48
2019-04-05T16:29:33.285Z,99879.38
2019-04-05T16:32:04.673Z,99874.15
2019-04-05T16:34:36.105Z,99881.40
2019-04-05T16:37:08.334Z,99873.80
2019-04-05T16:39:39.832Z,99888.13
2019-04-05T16:42:11.215Z,99874.48
2019-04-05T16:44:43.030Z,99878.94
2019-04-05T16:47:14.361Z,99880.94
2019-04-05T16:49:46.198Z,99880.94
2019-04-05T16:52:17.530Z,99879.59
2019-04-05T16:54:48.945Z,99872.29
2019-04-05T16:57:20.678Z,99872.29
2019-04-05T16:59:52.606Z,99879.02
2019-04-05T17:02:23.995Z,99881.89
2019-04-05T17:04:55.457Z,99882.66
2019-04-05T17:07:27.725Z,99881.88
2019-04-05T17:09:59.415Z,99883.94
2019-04-05T17:12:31.753Z,99887.95
2019-04-05T17:15:03.235Z,99883.94
2019-04-05T17:17:34.667Z,99898.03
2019-04-05T17:20:07.373Z,99894.20
2019-04-05T17:22:40.566Z,99886.86
2019-04-05T17:25:13.182Z,99883.86
2019-04-05T17:27:45.034Z,99885.91
2019-04-05T17:30:17.109Z,99886.69
2019-04-05T17:32:49.181Z,99890.06
2019-04-05T17:35:21.093Z,99888.25
2019-04-05T17:37:52.781Z,99892.16
2019-04-05T17:40:24.098Z,99888.88
2019-04-05T17:42:56.286Z,99883.09
2019-04-05T17:45:27.750Z,99904.21
2019-04-05T17:47:59.103Z,99897.70
2019-04-05T17:50:35.827Z,99901.53
2019-04-05T17:53:12.818Z,99911.22
2019-04-05T17:55:41.568Z,99907.14
2019-04-05T17:58:13.392Z,99904.91
2019-04-05T18:00:45.303Z,99911.95
2019-04-05T18:03:18.240Z,99909.41
2019-04-05T18:05:50.147Z,99911.20
2019-04-05T18:08:22.751Z,99912.23
2019-04-05T18:10:54.265Z,99912.23
2019-04-05T18:13:27.301Z,99916.30
2019-04-05T18:15:59.498Z,99922.79
2019-04-05T18:18:30.802Z,99918.98
2019-04-05T18:21:02.211Z,99929.45
2019-04-05T18:23:34.481Z,99927.43
2019-04-05T18:26:06.445Z,99924.87
2019-04-05T18:28:38.289Z,99931.00
2019-04-05T18:31:09.818Z,99938.84
2019-04-05T18:33:41.542Z,99941.02
2019-04-05T18:36:13.713Z,99928.80
2019-04-05T18:38:45.132Z,99928.45
2019-04-05T18:41:16.743Z,99929.89
2019-04-05T18:43:48.563Z,99934.73
2019-04-05T18:46:20.695Z,99939.05
2019-04-05T18:48:52.435Z,99934.38
2019-04-05T18:51:24.155Z,99939.61
2019-04-05T18:53:56.303Z,99944.89
2019-04-05T18:56:27.774Z,99940.11
2019-04-05T18:59:01.972Z,99941.43
2019-04-05T19:01:33.759Z,99945.84
2019-04-05T19:04:05.644Z,99946.77
2019-04-05T19:06:37.961Z,99942.86
2019-04-05T19:09:11.905Z,99948.22
2019-04-05T19:11:43.390Z,99951.20
2019-04-05T19:14:14.739Z,99951.69
2019-04-05T19:16:46.531Z,99951.75
2019-04-05T19:19:18.541Z,99941.67
2019-04-05T19:21:49.949Z,99946.41
2019-04-05T19:24:22.184Z,99949.01
2019-04-05T19:26:53.607Z,99938.92
2019-04-05T19:29:26.598Z,99945.09
2019-04-05T19:49:52.476Z,99953.94
2019-04-05T19:52:24.395Z,99952.25
2019-04-05T19:54:56.518Z,99960.97
2019-04-05T19:57:28.061Z,99960.59
2019-04-05T19:59:59.793Z,99956.85
2019-04-05T20:02:31.503Z,99964.33
2019-04-05T20:05:03.021Z,99952.63
2019-04-05T20:07:35.909Z,99959.66
2019-04-05T20:10:07.964Z,99957.97
2019-04-05T20:12:39.721Z,99962.00
2019-04-05T20:15:12.099Z,99966.22
2019-04-05T20:17:44.045Z,99975.36
2019-04-05T20:20:15.664Z,99975.09
2019-04-05T20:22:47.482Z,99975.20
2019-04-05T20:25:19.092Z,99978.74
2019-04-05T20:27:50.667Z,99972.31
2019-04-05T20:30:22.064Z,99979.91
2019-04-05T20:32:54.030Z,99969.58
2019-04-05T20:35:26.645Z,99971.37
2019-04-05T20:37:58.498Z,99962.38
2019-04-05T20:40:30.016Z,99972.92
2019-04-05T20:43:01.958Z,99979.53
2019-04-05T20:45:33.540Z,99979.72
2019-04-05T20:48:05.067Z,99978.06
2019-04-05T20:50:36.888Z,99971.64
2019-04-05T20:53:08.498Z,99975.19
2019-04-05T20:55:39.928Z,99977.45
2019-04-05T20:58:11.821Z,99979.23
2019-04-05T21:00:43.610Z,99976.70
2019-04-05T21:03:15.032Z,99972.00
2019-04-05T21:05:46.969Z,99984.67
2019-04-05T21:08:18.384Z,99970.85
2019-04-05T21:10:49.991Z,99965.75
2019-04-05T21:13:21.674Z,99957.56
2019-04-05T21:15:53.948Z,99961.08
2019-04-05T21:18:25.871Z,99954.59
2019-04-05T21:20:57.399Z,99959.91
2019-04-05T21:23:28.767Z,99961.65
2019-04-05T21:26:00.287Z,99960.81
2019-04-05T21:28:32.483Z,99962.62
2019-04-05T21:31:05.004Z,99951.36
2019-04-05T21:33:36.766Z,99950.06
2019-04-05T21:36:08.130Z,99948.79
2019-04-05T21:38:39.667Z,99957.53
2019-04-05T21:41:13.282Z,99956.73
2019-04-05T21:43:44.709Z,99947.55
2019-04-05T21:46:16.076Z,99952.30
2019-04-05T21:48:50.036Z,99945.91
2019-04-05T21:51:21.386Z,99946.87
2019-04-05T21:53:53.482Z,99964.70
2019-04-05T21:56:25.188Z,99949.98
2019-04-05T21:58:58.626Z,99962.63
2019-04-05T22:01:31.173Z,99963.54
2019-04-05T22:04:02.874Z,99965.38
2019-04-05T22:06:34.747Z,99972.41
2019-04-05T22:09:09.859Z,99974.09
2019-04-05T22:11:41.828Z,99977.58
2019-04-05T22:14:14.074Z,99977.97
2019-04-05T22:16:45.678Z,99972.41
2019-04-05T22:19:17.500Z,99975.47
2019-04-05T22:21:49.374Z,99978.96
2019-04-05T22:24:20.944Z,99972.89
2019-04-05T22:26:53.219Z,99971.23
2019-04-05T22:29:25.533Z,99974.69
2019-04-05T22:31:57.362Z,99976.44
2019-04-05T22:34:28.926Z,99978.20
2019-04-05T22:37:00.364Z,99985.16
2019-04-05T22:39:32.033Z,99983.45
2019-04-05T22:42:03.832Z,99977.39
2019-04-05T22:44:39.943Z,99973.94
2019-04-05T22:47:09.146Z,99972.23
2019-04-05T22:49:40.536Z,99979.17
2019-04-05T22:52:12.869Z,99970.08
2019-04-05T22:54:44.257Z,99970.13
2019-04-05T22:57:15.713Z,99971.86
2019-04-05T22:59:47.298Z,99977.53
2019-04-05T23:02:18.728Z,99977.53
2019-04-05T23:04:50.251Z,99974.92
2019-04-05T23:07:22.304Z,99982.31
2019-04-05T23:09:53.787Z,99983.59
2019-04-05T23:12:25.270Z,99981.84
2019-04-05T23:14:57.947Z,99981.01
2019-04-05T23:17:29.898Z,99976.69
2019-04-05T23:20:02.827Z,99980.17
2019-04-05T23:22:34.255Z,99987.12
2019-04-05T23:25:05.727Z,99992.29
2019-04-05T23:27:37.673Z,99996.19
2019-04-05T23:30:10.388Z,100005.72
2019-04-05T23:32:42.158Z,100000.55
2019-04-05T23:35:14.823Z,99997.09
2019-04-05T23:37:46.945Z,99993.63
2019-04-05T23:40:19.477Z,99998.39
2019-04-05T23:42:50.876Z,99991.03
2019-04-05T23:45:22.686Z,99997.55
2019-04-05T23:47:54.264Z,99986.28
2019-04-05T23:50:26.728Z,99984.55
2019-04-05T23:52:58.708Z,99986.30
2019-04-05T23:55:33.462Z,99990.62
2019-04-05T23:58:03.548Z,99991.94
